Time;durP1;ratioP1;P1;durP2;ratioP2;P2;SDS_P1;SDS_P2;PMS_P1;PMS_P2;Temp;Humidity;BMP_temperature;BMP_pressure;BME280_temperature;BME280_humidity;BME280_pressure;Samples;Min_cycle;Max_cycle;Signal;HPM_P1;HPM_P2
2023/05/08 00:01:15;;;;;;;13.95;2.58;;;;;;;;;;6272405;22;20074;-77
2023/05/08 00:03:41;;;;;;;16.40;2.40;;;;;;;;;;6271952;22;20038;-76
2023/05/08 00:06:07;;;;;;;14.75;2.58;;;;;;;;;;6271733;22;20000;-78
2023/05/08 00:08:32;;;;;;;13.70;2.50;;;;;;;;;;6272219;22;20057;-77
2023/05/08 00:10:58;;;;;;;11.52;2.17;;;;;;;;;;6272192;22;20063;-77
2023/05/08 00:13:23;;;;;;;14.68;2.83;;;;;;;;;;6272021;22;20000;-77
2023/05/08 00:15:49;;;;;;;13.55;2.47;;;;;;;;;;6272158;22;20007;-76
2023/05/08 00:18:15;;;;;;;13.10;2.25;;;;;;;;;;6271682;22;20011;-77
2023/05/08 00:20:40;;;;;;;14.20;2.47;;;;;;;;;;6244739;22;20071;-78
2023/05/08 00:23:06;;;;;;;13.88;2.30;;;;;;;;;;6271046;22;20046;-76
2023/05/08 00:25:32;;;;;;;19.20;3.00;;;;;;;;;;6245003;22;20004;-77
2023/05/08 00:27:58;;;;;;;12.23;2.15;;;;;;;;;;6271639;22;20594;-76
2023/05/08 00:30:23;;;;;;;17.15;2.67;;;;;;;;;;6271915;22;19999;-77
2023/05/08 00:32:48;;;;;;;12.57;2.50;;;;;;;;;;6271860;22;20079;-77
2023/05/08 00:35:14;;;;;;;13.05;2.30;;;;;;;;;;6271735;22;20003;-77
2023/05/08 00:37:40;;;;;;;13.82;2.30;;;;;;;;;;6270414;22;20011;-76
2023/05/08 00:40:08;;;;;;;14.55;2.30;;;;;;;;;;6271761;22;20000;-77
2023/05/08 00:42:33;;;;;;;11.35;2.30;;;;;;;;;;6271675;22;20083;-76
2023/05/08 00:44:58;;;;;;;14.52;2.58;;;;;;;;;;6271995;22;20039;-75
2023/05/08 00:47:24;;;;;;;13.88;2.22;;;;;;;;;;6271599;22;20027;-77
2023/05/08 00:49:49;;;;;;;12.48;2.33;;;;;;;;;;6271905;22;20493;-76
2023/05/08 00:52:16;;;;;;;13.10;2.20;;;;;;;;;;6271182;22;20003;-77
2023/05/08 00:54:43;;;;;;;15.48;2.47;;;;;;;;;;6271529;22;20047;-77
2023/05/08 00:57:09;;;;;;;11.95;1.92;;;;;;;;;;6244354;22;20104;-75
2023/05/08 00:59:36;;;;;;;13.25;2.40;;;;;;;;;;6271758;22;20383;-76
2023/05/08 01:02:02;;;;;;;15.48;2.60;;;;;;;;;;6271855;22;20079;-77
2023/05/08 01:04:29;;;;;;;12.23;2.30;;;;;;;;;;6271487;22;20053;-76
2023/05/08 01:06:54;;;;;;;17.13;2.88;;;;;;;;;;6270979;22;20011;-77
2023/05/08 01:09:20;;;;;;;13.07;2.25;;;;;;;;;;6271188;22;20543;-76
2023/05/08 01:12:02;;;;;;;14.57;2.28;;;;;;;;;;6271586;22;20031;-76
2023/05/08 01:14:55;;;;;;;11.23;2.25;;;;;;;;;;6271551;22;20007;-77
2023/05/08 01:17:37;;;;;;;8.88;2.10;;;;;;;;;;6271496;22;20356;-77
2023/05/08 01:20:09;;;;;;;15.00;2.72;;;;;;;;;;6271563;22;20004;-76
2023/05/08 01:22:56;;;;;;;14.00;2.53;;;;;;;;;;6243701;22;20007;-76
2023/05/08 01:26:06;;;;;;;11.95;2.50;;;;;;;;;;6271631;22;20003;-78
2023/05/08 01:29:06;;;;;;;14.32;2.55;;;;;;;;;;6243671;22;20383;-78
2023/05/08 01:31:34;;;;;;;14.25;2.65;;;;;;;;;;6271666;22;20030;-76
2023/05/08 01:34:00;;;;;;;19.77;3.03;;;;;;;;;;6271510;22;20003;-79
2023/05/08 01:36:38;;;;;;;14.80;2.42;;;;;;;;;;6271247;22;20010;-78
2023/05/08 01:39:16;;;;;;;14.93;2.75;;;;;;;;;;6270698;22;20024;-77
2023/05/08 01:41:50;;;;;;;15.43;2.55;;;;;;;;;;6271495;22;20061;-77
2023/05/08 01:44:27;;;;;;;13.05;2.40;;;;;;;;;;6270865;22;20007;-76
2023/05/08 01:46:52;;;;;;;13.57;2.45;;;;;;;;;;6243882;22;20014;-77
2023/05/08 01:49:26;;;;;;;11.88;2.45;;;;;;;;;;6271080;22;20003;-77
2023/05/08 01:52:22;;;;;;;12.98;2.60;;;;;;;;;;6270973;22;20071;-76
2023/05/08 01:54:56;;;;;;;13.85;2.30;;;;;;;;;;6271056;22;20094;-77
2023/05/08 01:57:25;;;;;;;12.82;2.13;;;;;;;;;;6270972;22;20082;-77
2023/05/08 01:59:53;;;;;;;16.50;3.33;;;;;;;;;;6271150;22;20552;-76
2023/05/08 02:02:20;;;;;;;12.52;2.28;;;;;;;;;;6271039;22;20022;-77
2023/05/08 02:04:50;;;;;;;13.88;2.28;;;;;;;;;;6243458;22;20153;-77
2023/05/08 02:07:17;;;;;;;20.33;2.90;;;;;;;;;;6243318;22;20014;-77
2023/05/08 02:09:43;;;;;;;13.68;2.45;;;;;;;;;;6270717;22;20432;-78
2023/05/08 02:12:11;;;;;;;15.32;2.80;;;;;;;;;;6271099;22;20008;-77
2023/05/08 02:14:39;;;;;;;14.63;2.63;;;;;;;;;;6270959;22;20436;-77
2023/05/08 02:17:08;;;;;;;19.60;3.15;;;;;;;;;;6270897;22;20000;-76
2023/05/08 02:19:34;;;;;;;12.25;2.63;;;;;;;;;;6270767;22;20434;-78
2023/05/08 02:22:00;;;;;;;12.30;3.05;;;;;;;;;;6269925;22;19999;-78
2023/05/08 02:24:26;;;;;;;17.85;3.20;;;;;;;;;;6270475;22;20081;-77
2023/05/08 02:26:53;;;;;;;16.30;2.60;;;;;;;;;;6270907;22;19999;-77
2023/05/08 02:29:21;;;;;;;15.10;2.95;;;;;;;;;;6270316;22;20332;-78
2023/05/08 02:31:48;;;;;;;16.90;3.38;;;;;;;;;;6271009;22;20011;-78
2023/05/08 02:34:15;;;;;;;15.25;2.60;;;;;;;;;;6270750;22;20507;-76
2023/05/08 02:36:41;;;;;;;19.40;2.95;;;;;;;;;;6270552;22;20007;-77
2023/05/08 02:39:10;;;;;;;12.43;2.83;;;;;;;;;;6243078;22;20040;-76
2023/05/08 02:41:37;;;;;;;13.57;2.50;;;;;;;;;;6270532;22;20003;-77
2023/05/08 02:44:02;;;;;;;15.93;2.88;;;;;;;;;;6270427;22;20012;-77
2023/05/08 02:46:50;;;;;;;13.48;2.60;;;;;;;;;;6243484;22;20128;-79
2023/05/08 02:49:52;;;;;;;10.40;2.40;;;;;;;;;;6270234;22;20022;-79
2023/05/08 02:52:29;;;;;;;12.23;2.33;;;;;;;;;;6231567;22;20082;-79
2023/05/08 02:55:02;;;;;;;15.43;2.92;;;;;;;;;;6270373;22;20080;-77
2023/05/08 02:57:45;;;;;;;11.13;2.40;;;;;;;;;;6270495;22;20418;-76
2023/05/08 03:00:17;;;;;;;13.20;2.83;;;;;;;;;;6270405;22;20137;-76
2023/05/08 03:02:53;;;;;;;17.55;3.15;;;;;;;;;;6270724;22;20053;-77
2023/05/08 03:05:24;;;;;;;16.55;2.70;;;;;;;;;;6243203;22;20015;-77
2023/05/08 03:07:53;;;;;;;12.38;2.63;;;;;;;;;;6270158;22;20011;-76
2023/05/08 03:10:23;;;;;;;11.75;2.70;;;;;;;;;;6270307;22;20011;-78
2023/05/08 03:12:50;;;;;;;;;;;;;;;;;;6271061;22;20000;-77
2023/05/08 03:15:32;;;;;;;12.13;2.40;;;;;;;;;;6270224;22;19959;-78
2023/05/08 03:18:02;;;;;;;12.77;2.42;;;;;;;;;;6270466;22;20446;-77
2023/05/08 03:20:31;;;;;;;;;;;;;;;;;;6271026;22;20003;-76
2023/05/08 03:22:57;;;;;;;15.55;2.40;;;;;;;;;;6269789;22;19914;-77
2023/05/08 03:25:24;;;;;;;14.48;2.65;;;;;;;;;;6270397;22;20015;-76
2023/05/08 03:27:51;;;;;;;14.43;2.90;;;;;;;;;;6270314;22;20580;-77
2023/05/08 03:30:17;;;;;;;15.85;3.28;;;;;;;;;;6270074;22;20074;-76
2023/05/08 03:32:45;;;;;;;13.57;2.83;;;;;;;;;;6271383;22;20085;-76
2023/05/08 03:35:12;;;;;;;15.43;2.70;;;;;;;;;;6272455;22;20451;-76
2023/05/08 03:37:37;;;;;;;15.30;2.63;;;;;;;;;;6271819;22;20056;-77
2023/05/08 03:40:05;;;;;;;15.65;2.90;;;;;;;;;;6272248;22;20004;-77
2023/05/08 03:42:31;;;;;;;15.23;2.90;;;;;;;;;;6272692;22;20006;-76
2023/05/08 03:44:57;;;;;;;12.93;2.78;;;;;;;;;;6272212;22;20014;-76
2023/05/08 03:47:24;;;;;;;16.15;2.70;;;;;;;;;;6272467;22;20340;-76
2023/05/08 03:49:50;;;;;;;15.30;2.40;;;;;;;;;;6272199;22;20004;-77
2023/05/08 03:52:16;;;;;;;10.90;2.22;;;;;;;;;;6271883;22;20004;-76
2023/05/08 03:54:42;;;;;;;17.58;2.90;;;;;;;;;;6272123;22;20011;-77
2023/05/08 03:57:08;;;;;;;13.25;2.80;;;;;;;;;;6272380;22;20006;-77
2023/05/08 04:00:04;;;;;;;12.55;2.40;;;;;;;;;;6271868;22;20031;-75
2023/05/08 04:02:51;;;;;;;16.13;2.58;;;;;;;;;;6272491;22;20088;-78
2023/05/08 04:05:38;;;;;;;14.27;2.42;;;;;;;;;;6271952;22;20050;-77
2023/05/08 04:08:20;;;;;;;11.68;2.40;;;;;;;;;;6271788;22;20007;-76
2023/05/08 04:10:53;;;;;;;18.73;3.05;;;;;;;;;;6271933;22;20062;-77
2023/05/08 04:13:24;;;;;;;16.63;2.30;;;;;;;;;;6272088;22;20006;-77
2023/05/08 04:15:52;;;;;;;14.65;2.75;;;;;;;;;;6272061;22;20020;-77
2023/05/08 04:18:24;;;;;;;12.98;2.45;;;;;;;;;;6272131;22;20079;-77
2023/05/08 04:20:52;;;;;;;11.43;2.33;;;;;;;;;;6271552;22;20053;-76
2023/05/08 04:23:21;;;;;;;12.40;2.33;;;;;;;;;;6272030;22;20582;-77
2023/05/08 04:25:48;;;;;;;10.70;2.22;;;;;;;;;;6271598;22;20059;-77
2023/05/08 04:28:15;;;;;;;13.27;2.60;;;;;;;;;;6271507;22;20027;-77
2023/05/08 04:30:41;;;;;;;14.93;2.63;;;;;;;;;;6272051;22;20004;-76
2023/05/08 04:33:07;;;;;;;16.95;2.90;;;;;;;;;;6272350;22;20007;-76
2023/05/08 04:35:33;;;;;;;13.55;2.50;;;;;;;;;;6271926;22;20325;-77
2023/05/08 04:37:59;;;;;;;10.05;2.25;;;;;;;;;;6271342;22;20046;-77
2023/05/08 04:40:24;;;;;;;14.48;2.50;;;;;;;;;;6271367;22;20595;-77
2023/05/08 04:42:50;;;;;;;12.07;2.60;;;;;;;;;;6271897;22;20021;-77
2023/05/08 04:45:16;;;;;;;15.48;2.78;;;;;;;;;;6270883;22;19999;-76
2023/05/08 04:47:42;;;;;;;14.60;2.30;;;;;;;;;;6271974;22;20145;-77
2023/05/08 04:50:08;;;;;;;15.00;2.40;;;;;;;;;;6271722;22;20008;-77
2023/05/08 04:52:33;;;;;;;12.10;2.67;;;;;;;;;;6243516;22;20008;-77
2023/05/08 04:54:58;;;;;;;14.98;2.53;;;;;;;;;;6271764;22;20007;-77
2023/05/08 04:57:24;;;;;;;17.10;3.05;;;;;;;;;;6272033;22;20003;-77
2023/05/08 04:59:49;;;;;;;14.70;2.42;;;;;;;;;;6271643;22;20031;-77
2023/05/08 05:02:15;;;;;;;21.77;2.80;;;;;;;;;;6271376;22;19999;-77
2023/05/08 05:04:40;;;;;;;14.90;2.88;;;;;;;;;;6271680;22;20042;-79
2023/05/08 05:07:06;;;;;;;14.68;2.67;;;;;;;;;;6271375;22;20344;-76
2023/05/08 05:09:35;;;;;;;15.68;2.97;;;;;;;;;;6271718;22;20026;-77
2023/05/08 05:12:02;;;;;;;18.58;3.05;;;;;;;;;;6271420;22;19999;-78
2023/05/08 05:14:27;;;;;;;13.57;3.10;;;;;;;;;;6244586;22;20046;-77
2023/05/08 05:16:53;;;;;;;19.55;2.90;;;;;;;;;;6271188;22;20012;-77
2023/05/08 05:19:18;;;;;;;21.20;2.90;;;;;;;;;;6271398;22;20027;-77
2023/05/08 05:21:44;;;;;;;18.38;2.80;;;;;;;;;;6270952;22;20008;-77
2023/05/08 05:24:09;;;;;;;16.48;2.65;;;;;;;;;;6271507;22;20083;-76
2023/05/08 05:26:35;;;;;;;14.77;2.47;;;;;;;;;;6271311;22;20007;-77
2023/05/08 05:29:00;;;;;;;14.35;2.63;;;;;;;;;;6271393;22;20007;-77
2023/05/08 05:31:27;;;;;;;11.70;2.40;;;;;;;;;;6271559;22;20027;-77
2023/05/08 05:33:52;;;;;;;14.25;2.60;;;;;;;;;;6271311;22;20367;-77
2023/05/08 05:36:18;;;;;;;13.40;2.35;;;;;;;;;;6270567;22;20117;-78
2023/05/08 05:38:43;;;;;;;11.30;2.20;;;;;;;;;;6270837;22;20012;-77
2023/05/08 05:41:09;;;;;;;15.32;2.53;;;;;;;;;;6270949;22;20011;-77
2023/05/08 05:43:34;;;;;;;15.07;2.30;;;;;;;;;;6270973;22;20356;-77
2023/05/08 05:46:07;;;;;;;12.88;2.38;;;;;;;;;;6271209;22;20018;-77
2023/05/08 05:48:32;;;;;;;11.20;2.10;;;;;;;;;;6271221;22;20118;-76
2023/05/08 05:50:58;;;;;;;11.60;2.00;;;;;;;;;;6270623;22;20012;-77
2023/05/08 05:53:23;;;;;;;7.53;1.95;;;;;;;;;;6271632;22;20003;-76
2023/05/08 05:55:49;;;;;;;11.35;1.88;;;;;;;;;;6243330;22;20089;-77
2023/05/08 05:58:15;;;;;;;12.95;1.83;;;;;;;;;;6271016;22;20004;-76
2023/05/08 06:00:41;;;;;;;9.35;2.10;;;;;;;;;;6270874;22;19996;-77
2023/05/08 06:03:07;;;;;;;10.45;2.10;;;;;;;;;;6270935;22;20593;-76
2023/05/08 06:05:32;;;;;;;12.48;2.20;;;;;;;;;;6271001;22;20006;-76
2023/05/08 06:07:58;;;;;;;7.68;1.75;;;;;;;;;;6270304;22;19996;-77
2023/05/08 06:10:23;;;;;;;10.07;1.75;;;;;;;;;;6270985;22;20000;-76
2023/05/08 06:12:49;;;;;;;8.85;2.10;;;;;;;;;;6270947;22;19995;-78
2023/05/08 06:15:14;;;;;;;13.60;2.40;;;;;;;;;;6271212;22;20007;-79
2023/05/08 06:17:40;;;;;;;9.00;2.13;;;;;;;;;;6270973;22;20038;-79
2023/05/08 06:20:07;;;;;;;9.05;2.00;;;;;;;;;;6270961;22;20006;-77
2023/05/08 06:22:32;;;;;;;8.63;1.95;;;;;;;;;;6269859;22;20004;-76
2023/05/08 06:24:58;;;;;;;8.60;1.60;;;;;;;;;;6270755;22;20312;-77
2023/05/08 06:27:24;;;;;;;9.20;1.83;;;;;;;;;;6243216;22;20498;-77
2023/05/08 06:29:51;;;;;;;7.60;1.70;;;;;;;;;;6270700;22;19999;-76
2023/05/08 06:32:20;;;;;;;7.53;1.60;;;;;;;;;;6270698;22;20023;-77
2023/05/08 06:34:46;;;;;;;7.50;1.70;;;;;;;;;;6271149;22;20189;-78
2023/05/08 06:37:11;;;;;;;10.05;1.70;;;;;;;;;;6242634;22;20103;-75
2023/05/08 06:39:37;;;;;;;7.05;1.70;;;;;;;;;;6270797;22;20007;-77
2023/05/08 06:42:05;;;;;;;8.60;1.80;;;;;;;;;;6270578;22;20011;-78
2023/05/08 06:44:31;;;;;;;4.68;1.52;;;;;;;;;;6270700;22;20004;-78
2023/05/08 06:46:56;;;;;;;6.93;1.60;;;;;;;;;;6270742;22;20007;-78
2023/05/08 06:49:22;;;;;;;8.85;1.60;;;;;;;;;;6270598;22;20006;-78
2023/05/08 06:51:50;;;;;;;6.40;1.42;;;;;;;;;;6270084;22;20096;-78
2023/05/08 06:54:16;;;;;;;8.88;1.48;;;;;;;;;;6270806;22;20031;-77
2023/05/08 06:56:41;;;;;;;7.10;1.40;;;;;;;;;;6270563;22;20002;-76
2023/05/08 06:59:07;;;;;;;3.58;1.25;;;;;;;;;;6270892;22;20428;-77
2023/05/08 07:01:36;;;;;;;4.20;1.20;;;;;;;;;;6270271;22;20091;-76
2023/05/08 07:04:01;;;;;;;3.88;1.17;;;;;;;;;;6270543;22;20004;-76
2023/05/08 07:06:27;;;;;;;7.70;1.50;;;;;;;;;;6242694;22;20061;-76
2023/05/08 07:08:52;;;;;;;7.90;1.52;;;;;;;;;;6270315;22;20010;-77
2023/05/08 07:11:18;;;;;;;6.35;1.13;;;;;;;;;;6270427;22;20021;-77
2023/05/08 07:13:46;;;;;;;8.05;1.45;;;;;;;;;;6270552;22;20083;-77
2023/05/08 07:16:12;;;;;;;5.10;1.40;;;;;;;;;;6270680;22;20007;-77
2023/05/08 07:18:38;;;;;;;8.07;1.40;;;;;;;;;;6270280;22;20000;-77
2023/05/08 07:21:03;;;;;;;3.97;1.10;;;;;;;;;;6269981;22;20091;-77
2023/05/08 07:23:29;;;;;;;4.13;1.27;;;;;;;;;;6242718;22;20398;-78
2023/05/08 07:25:54;;;;;;;6.38;1.30;;;;;;;;;;6270473;22;20398;-76
2023/05/08 07:28:20;;;;;;;6.93;1.30;;;;;;;;;;6270282;22;20490;-77
2023/05/08 07:30:45;;;;;;;6.07;1.30;;;;;;;;;;6270524;22;20000;-78
2023/05/08 07:33:11;;;;;;;5.75;1.38;;;;;;;;;;6270321;22;20008;-76
2023/05/08 07:35:40;;;;;;;6.47;1.15;;;;;;;;;;6270660;22;20002;-76
2023/05/08 07:38:06;;;;;;;6.10;1.38;;;;;;;;;;6269533;22;20012;-77
2023/05/08 07:40:31;;;;;;;3.90;1.08;;;;;;;;;;6269907;22;20094;-77
2023/05/08 07:42:57;;;;;;;3.90;1.20;;;;;;;;;;6270059;22;20087;-78
2023/05/08 07:45:22;;;;;;;6.20;1.40;;;;;;;;;;6270584;22;20344;-76
2023/05/08 07:47:49;;;;;;;6.88;1.27;;;;;;;;;;6270133;22;20000;-76
2023/05/08 07:50:15;;;;;;;5.53;1.52;;;;;;;;;;6270023;22;20471;-77
2023/05/08 07:52:40;;;;;;;7.07;1.45;;;;;;;;;;6269663;22;20004;-77
2023/05/08 07:55:06;;;;;;;9.57;1.70;;;;;;;;;;6270119;22;20562;-77
2023/05/08 07:57:38;;;;;;;7.00;1.52;;;;;;;;;;6270182;22;20433;-77
2023/05/08 08:00:09;;;;;;;4.70;1.40;;;;;;;;;;6270076;22;20087;-77
2023/05/08 08:02:34;;;;;;;3.75;1.02;;;;;;;;;;6270067;22;20003;-78
2023/05/08 08:05:00;;;;;;;5.93;1.60;;;;;;;;;;6270452;22;20011;-76
2023/05/08 08:07:26;;;;;;;6.75;1.40;;;;;;;;;;6269802;22;20043;-78
2023/05/08 08:09:51;;;;;;;5.90;1.40;;;;;;;;;;6270340;22;20000;-76
2023/05/08 08:12:19;;;;;;;6.57;1.45;;;;;;;;;;6269972;22;20090;-78
2023/05/08 08:14:44;;;;;;;6.55;1.58;;;;;;;;;;6270150;22;20332;-76
2023/05/08 08:17:10;;;;;;;5.55;1.20;;;;;;;;;;6270202;22;20456;-78
2023/05/08 08:19:35;;;;;;;6.88;1.23;;;;;;;;;;6271046;22;20035;-77
2023/05/08 08:22:01;;;;;;;4.68;1.30;;;;;;;;;;6271512;22;20372;-78
2023/05/08 08:24:28;;;;;;;6.43;1.33;;;;;;;;;;6271863;22;20076;-77
2023/05/08 08:26:53;;;;;;;4.95;1.42;;;;;;;;;;6272164;22;20042;-78
2023/05/08 08:29:19;;;;;;;3.47;1.20;;;;;;;;;;6271674;22;20007;-77
2023/05/08 08:31:44;;;;;;;7.30;1.40;;;;;;;;;;6271895;22;20004;-78
2023/05/08 08:34:10;;;;;;;5.70;1.27;;;;;;;;;;6271460;22;20078;-77
2023/05/08 08:36:36;;;;;;;6.60;1.25;;;;;;;;;;6271711;22;20026;-77
2023/05/08 08:39:01;;;;;;;6.30;1.13;;;;;;;;;;6271554;22;20016;-79
2023/05/08 08:41:27;;;;;;;8.50;1.40;;;;;;;;;;6271830;22;20007;-75
2023/05/08 08:43:53;;;;;;;4.63;1.00;;;;;;;;;;6271642;22;20004;-78
2023/05/08 08:46:23;;;;;;;4.88;1.20;;;;;;;;;;6271926;22;20091;-78
2023/05/08 08:48:49;;;;;;;5.67;1.20;;;;;;;;;;6271873;22;20039;-77
2023/05/08 08:51:28;;;;;;;3.78;0.80;;;;;;;;;;6243825;22;20011;-78
2023/05/08 08:54:03;;;;;;;4.35;1.00;;;;;;;;;;6272243;22;20026;-78
2023/05/08 08:56:30;;;;;;;6.78;1.10;;;;;;;;;;6271994;22;20004;-77
2023/05/08 08:58:58;;;;;;;8.88;1.33;;;;;;;;;;6271664;22;20006;-76
2023/05/08 09:01:25;;;;;;;4.95;1.00;;;;;;;;;;6271914;22;19995;-76
2023/05/08 09:03:51;;;;;;;5.88;1.30;;;;;;;;;;6271495;22;20498;-77
2023/05/08 09:06:18;;;;;;;3.97;0.93;;;;;;;;;;6271214;22;19999;-76
2023/05/08 09:08:44;;;;;;;4.68;1.00;;;;;;;;;;6271389;22;20428;-77
2023/05/08 09:11:09;;;;;;;6.07;1.10;;;;;;;;;;6271441;22;20098;-77
2023/05/08 09:13:35;;;;;;;11.32;1.45;;;;;;;;;;6271495;22;20090;-76
2023/05/08 09:16:00;;;;;;;5.05;1.38;;;;;;;;;;6271936;22;20019;-76
2023/05/08 09:18:26;;;;;;;5.13;1.35;;;;;;;;;;6271551;22;20095;-78
2023/05/08 09:20:52;;;;;;;3.60;0.80;;;;;;;;;;6271046;22;20007;-76
2023/05/08 09:23:17;;;;;;;5.72;1.20;;;;;;;;;;6271367;22;20088;-76
2023/05/08 09:25:50;;;;;;;3.22;1.00;;;;;;;;;;6271387;22;20004;-76
2023/05/08 09:28:23;;;;;;;4.40;1.23;;;;;;;;;;6271261;22;20014;-78
2023/05/08 09:30:50;;;;;;;5.38;1.13;;;;;;;;;;6271391;22;20007;-76
2023/05/08 09:33:16;;;;;;;2.92;0.98;;;;;;;;;;6271357;22;20422;-76
2023/05/08 09:35:41;;;;;;;3.60;1.10;;;;;;;;;;6271617;22;20086;-77
2023/05/08 09:38:07;;;;;;;4.10;1.00;;;;;;;;;;6270970;22;20467;-76
2023/05/08 09:40:32;;;;;;;4.38;1.02;;;;;;;;;;6270958;22;20408;-77
2023/05/08 09:43:11;;;;;;;5.57;1.33;;;;;;;;;;6270842;22;20053;-76
2023/05/08 09:45:38;;;;;;;5.20;1.10;;;;;;;;;;6271421;22;20032;-76
2023/05/08 09:48:04;;;;;;;6.55;1.38;;;;;;;;;;6271272;22;20378;-76
2023/05/08 09:50:31;;;;;;;4.43;1.10;;;;;;;;;;6271090;22;20003;-76
2023/05/08 09:52:57;;;;;;;4.78;1.30;;;;;;;;;;6270548;22;20440;-77
2023/05/08 09:55:23;;;;;;;4.38;1.05;;;;;;;;;;6271177;22;20079;-77
2023/05/08 09:57:56;;;;;;;6.07;1.35;;;;;;;;;;6271475;22;20417;-76
2023/05/08 10:00:26;;;;;;;5.25;1.30;;;;;;;;;;6270849;22;19999;-76
2023/05/08 10:03:00;;;;;;;4.20;1.10;;;;;;;;;;6243397;22;20087;-76
2023/05/08 10:05:31;;;;;;;5.95;1.20;;;;;;;;;;6270948;22;20004;-76
2023/05/08 10:07:58;;;;;;;5.72;1.17;;;;;;;;;;6270851;22;20442;-77
2023/05/08 10:10:25;;;;;;;5.72;1.42;;;;;;;;;;6270943;22;20001;-77
2023/05/08 10:12:53;;;;;;;3.58;0.98;;;;;;;;;;6270848;22;20011;-77
2023/05/08 10:15:22;;;;;;;3.08;1.00;;;;;;;;;;6270752;22;20004;-77
2023/05/08 10:18:09;;;;;;;5.60;1.35;;;;;;;;;;6271057;22;20006;-76
2023/05/08 10:20:43;;;;;;;4.40;1.10;;;;;;;;;;6270975;22;20484;-77
2023/05/08 10:23:13;;;;;;;4.30;0.90;;;;;;;;;;6270219;22;20498;-76
2023/05/08 10:25:43;;;;;;;5.25;1.02;;;;;;;;;;6270832;22;20030;-78
2023/05/08 10:28:12;;;;;;;6.38;1.10;;;;;;;;;;6271151;22;20110;-76
2023/05/08 10:30:46;;;;;;;3.78;1.00;;;;;;;;;;6270849;22;20364;-77
2023/05/08 10:33:14;;;;;;;3.33;0.93;;;;;;;;;;6270805;22;20011;-79
2023/05/08 10:35:40;;;;;;;5.65;1.50;;;;;;;;;;6243547;22;20094;-77
2023/05/08 10:38:08;;;;;;;5.38;1.10;;;;;;;;;;6270444;22;20055;-76
2023/05/08 10:40:33;;;;;;;3.67;0.93;;;;;;;;;;6270137;22;20087;-77
2023/05/08 10:42:59;;;;;;;4.97;1.27;;;;;;;;;;6270465;22;20035;-76
2023/05/08 10:45:25;;;;;;;3.35;0.93;;;;;;;;;;6270534;22;20502;-76
2023/05/08 10:47:57;;;;;;;4.38;1.10;;;;;;;;;;6270895;22;20003;-76
2023/05/08 10:50:48;;;;;;;3.20;1.00;;;;;;;;;;6270503;22;20022;-76
2023/05/08 10:53:30;;;;;;;4.80;1.10;;;;;;;;;;6242912;22;20046;-78
2023/05/08 10:55:56;;;;;;;3.88;1.10;;;;;;;;;;6270336;22;20415;-76
2023/05/08 10:58:32;;;;;;;6.72;1.30;;;;;;;;;;6270951;22;20554;-76
2023/05/08 11:01:05;;;;;;;4.43;1.23;;;;;;;;;;6270416;22;20428;-76
2023/05/08 11:03:32;;;;;;;3.92;1.02;;;;;;;;;;6270342;22;20495;-78
2023/05/08 11:06:00;;;;;;;4.60;1.10;;;;;;;;;;6270124;22;20011;-75
2023/05/08 11:08:30;;;;;;;6.25;1.30;;;;;;;;;;6270787;22;20006;-75
2023/05/08 11:11:01;;;;;;;5.32;1.20;;;;;;;;;;6270522;22;20026;-76
2023/05/08 11:13:32;;;;;;;5.95;1.58;;;;;;;;;;6270387;22;20381;-77
2023/05/08 11:15:58;;;;;;;4.32;1.30;;;;;;;;;;6242959;22;20004;-76
2023/05/08 11:18:24;;;;;;;7.22;1.30;;;;;;;;;;6270785;22;20042;-76
2023/05/08 11:21:13;;;;;;;7.13;1.13;;;;;;;;;;6270154;22;20028;-78
2023/05/08 11:23:38;;;;;;;3.85;1.17;;;;;;;;;;6270210;22;19999;-77
2023/05/08 11:26:10;;;;;;;5.63;1.17;;;;;;;;;;6270295;22;20114;-78
2023/05/08 11:28:53;;;;;;;4.03;1.20;;;;;;;;;;6270547;22;20042;-77
2023/05/08 11:31:19;;;;;;;4.10;1.10;;;;;;;;;;6270261;22;20367;-79
2023/05/08 11:33:45;;;;;;;5.93;1.30;;;;;;;;;;6270109;22;20074;-76
2023/05/08 11:36:19;;;;;;;3.45;1.10;;;;;;;;;;6269560;22;20024;-76
2023/05/08 11:39:06;;;;;;;3.30;1.08;;;;;;;;;;6270519;22;20085;-76
2023/05/08 11:41:32;;;;;;;3.67;1.02;;;;;;;;;;6270161;22;20029;-77
2023/05/08 11:44:08;;;;;;;6.55;1.10;;;;;;;;;;6270337;22;20019;-76
2023/05/08 11:46:39;;;;;;;5.22;1.10;;;;;;;;;;6270076;22;20344;-77
2023/05/08 11:49:05;;;;;;;4.57;1.08;;;;;;;;;;6270442;22;20011;-77
2023/05/08 11:51:32;;;;;;;5.38;1.27;;;;;;;;;;6269630;22;20501;-77
2023/05/08 11:53:59;;;;;;;3.97;1.10;;;;;;;;;;6271292;22;20463;-76
2023/05/08 11:56:25;;;;;;;4.35;1.15;;;;;;;;;;6272253;22;20315;-77
2023/05/08 11:59:12;;;;;;;2.95;1.00;;;;;;;;;;6272886;22;19999;-76
2023/05/08 12:01:37;;;;;;;3.67;1.05;;;;;;;;;;6272153;22;20087;-76
2023/05/08 12:04:08;;;;;;;5.78;1.15;;;;;;;;;;6271944;22;20035;-76
2023/05/08 12:06:36;;;;;;;4.25;1.20;;;;;;;;;;6271560;22;20011;-77
2023/05/08 12:09:04;;;;;;;5.18;1.30;;;;;;;;;;6272494;22;20006;-77
2023/05/08 12:11:30;;;;;;;4.40;1.00;;;;;;;;;;6272002;22;20356;-77
2023/05/08 12:13:56;;;;;;;4.03;1.23;;;;;;;;;;6272168;22;20003;-77
2023/05/08 12:16:23;;;;;;;5.03;1.20;;;;;;;;;;6272027;22;20027;-76
2023/05/08 12:18:50;;;;;;;5.82;1.30;;;;;;;;;;6272205;22;20003;-77
2023/05/08 12:21:15;;;;;;;3.95;1.10;;;;;;;;;;6271450;22;20030;-76
2023/05/08 12:23:41;;;;;;;5.40;1.10;;;;;;;;;;6272029;22;20345;-76
2023/05/08 12:26:07;;;;;;;4.38;1.00;;;;;;;;;;6271867;22;20000;-77
2023/05/08 12:28:33;;;;;;;6.53;1.08;;;;;;;;;;6272123;22;20003;-77
2023/05/08 12:30:59;;;;;;;4.20;1.02;;;;;;;;;;6271913;22;20003;-77
2023/05/08 12:33:25;;;;;;;4.07;1.00;;;;;;;;;;6271808;22;20003;-76
2023/05/08 12:35:50;;;;;;;5.55;1.08;;;;;;;;;;6271188;22;20054;-76
2023/05/08 12:38:16;;;;;;;3.78;1.00;;;;;;;;;;6271821;22;20042;-76
2023/05/08 12:40:47;;;;;;;5.30;1.23;;;;;;;;;;6244323;22;20012;-76
2023/05/08 12:43:13;;;;;;;7.55;1.23;;;;;;;;;;6271748;22;20560;-77
2023/05/08 12:45:40;;;;;;;5.00;1.10;;;;;;;;;;6271734;22;20010;-76
2023/05/08 12:48:10;;;;;;;3.58;1.05;;;;;;;;;;6272094;22;20008;-77
2023/05/08 12:50:41;;;;;;;5.85;1.30;;;;;;;;;;6271748;22;20073;-76
2023/05/08 12:53:08;;;;;;;;;;;;;;;;;;6272056;22;20008;-76
2023/05/08 12:55:36;;;;;;;3.70;1.13;;;;;;;;;;6244290;22;19911;-76
2023/05/08 12:58:06;;;;;;;5.25;1.00;;;;;;;;;;6271701;22;20004;-77
2023/05/08 13:00:40;;;;;;;3.88;1.20;;;;;;;;;;6271244;22;20024;-77
2023/05/08 13:03:08;;;;;;;5.35;0.95;;;;;;;;;;6244284;22;20004;-76
2023/05/08 13:05:40;;;;;;;5.07;1.10;;;;;;;;;;6244214;22;20039;-76
2023/05/08 13:08:09;;;;;;;3.72;0.90;;;;;;;;;;6271127;22;20121;-77
2023/05/08 13:10:50;;;;;;;5.82;1.10;;;;;;;;;;6271611;22;20378;-77
2023/05/08 13:13:21;;;;;;;6.03;1.20;;;;;;;;;;6271398;22;20011;-79
2023/05/08 13:15:46;;;;;;;;;;;;;;;;;;6271849;22;20498;-77
2023/05/08 13:18:13;;;;;;;3.05;0.75;;;;;;;;;;6271790;22;19982;-79
2023/05/08 13:20:38;;;;;;;4.72;0.90;;;;;;;;;;6271664;22;20049;-80
2023/05/08 13:23:04;;;;;;;3.42;1.00;;;;;;;;;;6270675;22;20026;-80
2023/05/08 13:25:30;;;;;;;2.97;0.90;;;;;;;;;;6271573;22;20056;-77
2023/05/08 13:27:59;;;;;;;3.50;1.20;;;;;;;;;;6271389;22;20032;-76
2023/05/08 13:30:25;;;;;;;2.78;0.90;;;;;;;;;;6271463;22;20026;-76
2023/05/08 13:32:51;;;;;;;5.10;0.82;;;;;;;;;;6270758;22;20339;-77
2023/05/08 13:35:18;;;;;;;3.60;1.00;;;;;;;;;;6271536;22;20007;-77
2023/05/08 13:37:44;;;;;;;4.22;1.13;;;;;;;;;;6243143;22;20046;-76
2023/05/08 13:40:10;;;;;;;5.13;1.00;;;;;;;;;;6271403;22;20460;-77
2023/05/08 13:42:36;;;;;;;4.00;1.08;;;;;;;;;;6271240;22;20479;-76
2023/05/08 13:45:03;;;;;;;4.70;1.30;;;;;;;;;;6271357;22;20011;-76
2023/05/08 13:47:28;;;;;;;2.55;0.98;;;;;;;;;;6271076;22;20516;-76
2023/05/08 13:49:53;;;;;;;4.38;1.17;;;;;;;;;;6244006;22;20090;-77
2023/05/08 13:52:19;;;;;;;2.95;0.95;;;;;;;;;;6270815;22;20008;-77
2023/05/08 13:54:44;;;;;;;4.15;1.33;;;;;;;;;;6271188;22;20006;-79
2023/05/08 13:57:10;;;;;;;3.35;1.02;;;;;;;;;;6271047;22;20079;-76
2023/05/08 13:59:35;;;;;;;4.80;1.08;;;;;;;;;;6271549;22;20045;-77
2023/05/08 14:02:01;;;;;;;3.40;1.05;;;;;;;;;;6270974;22;20008;-76
2023/05/08 14:04:26;;;;;;;5.43;1.10;;;;;;;;;;6271025;22;20360;-77
2023/05/08 14:06:52;;;;;;;4.90;1.05;;;;;;;;;;6270229;22;20026;-77
2023/05/08 14:09:19;;;;;;;4.40;1.05;;;;;;;;;;6243802;22;20344;-77
2023/05/08 14:11:45;;;;;;;4.35;1.13;;;;;;;;;;6270904;22;20003;-78
2023/05/08 14:14:10;;;;;;;3.85;1.15;;;;;;;;;;6270990;22;20080;-78
2023/05/08 14:16:36;;;;;;;3.45;0.95;;;;;;;;;;6243852;22;20071;-78
2023/05/08 14:19:01;;;;;;;2.28;0.90;;;;;;;;;;6270974;22;20006;-77
2023/05/08 14:21:27;;;;;;;5.30;1.00;;;;;;;;;;6270595;22;20011;-78
2023/05/08 14:23:52;;;;;;;4.25;0.90;;;;;;;;;;6270595;22;20014;-77
2023/05/08 14:26:18;;;;;;;4.55;1.10;;;;;;;;;;6270734;22;20455;-77
2023/05/08 14:28:44;;;;;;;2.58;0.82;;;;;;;;;;6270727;22;20336;-76
2023/05/08 14:31:09;;;;;;;4.65;1.15;;;;;;;;;;6270894;22;19999;-76
2023/05/08 14:33:35;;;;;;;3.25;1.00;;;;;;;;;;6270733;22;20004;-78
2023/05/08 14:36:00;;;;;;;3.40;1.00;;;;;;;;;;6270453;22;20004;-78
2023/05/08 14:38:25;;;;;;;3.22;0.90;;;;;;;;;;6270332;22;20012;-77
2023/05/08 14:40:53;;;;;;;4.93;1.00;;;;;;;;;;6270692;22;20332;-77
2023/05/08 14:43:19;;;;;;;4.50;1.10;;;;;;;;;;6270442;22;20000;-78
2023/05/08 14:45:44;;;;;;;6.05;1.00;;;;;;;;;;6270592;22;20000;-76